Time;durP1;ratioP1;P1;durP2;ratioP2;P2;SDS_P1;SDS_P2;PMS_P1;PMS_P2;Temp;Humidity;BMP_temperature;BMP_pressure;BME280_temperature;BME280_humidity;BME280_pressure;Samples;Min_cycle;Max_cycle;Signal;HPM_P1;HPM_P2
2021/06/28 00:02:04;;;;;;;2.47;1.70;;;23.30;99.90;;;;;;5051943;28;20670;-61
2021/06/28 00:04:31;;;;;;;1.95;1.83;;;23.40;99.90;;;;;;5051640;28;20230;-60
2021/06/28 00:06:58;;;;;;;1.65;1.55;;;23.40;99.90;;;;;;5051888;28;20673;-60
2021/06/28 00:09:25;;;;;;;4.07;1.50;;;23.50;99.90;;;;;;5051716;28;20219;-60
2021/06/28 00:11:52;;;;;;;3.03;1.80;;;23.50;99.90;;;;;;5051739;28;20232;-60
2021/06/28 00:14:18;;;;;;;1.63;1.50;;;23.50;99.90;;;;;;5051423;28;20206;-60
2021/06/28 00:16:46;;;;;;;3.08;1.58;;;23.60;99.90;;;;;;5051920;28;20217;-60
2021/06/28 00:19:13;;;;;;;3.47;1.40;;;23.60;99.90;;;;;;5051902;28;20202;-61
2021/06/28 00:21:40;;;;;;;1.83;1.30;;;23.60;99.90;;;;;;5053125;28;20210;-60
2021/06/28 00:24:08;;;;;;;1.73;1.30;;;23.60;99.90;;;;;;5051398;28;20337;-60
2021/06/28 00:26:35;;;;;;;1.63;1.48;;;23.70;99.90;;;;;;5051564;28;20209;-60
2021/06/28 00:29:02;;;;;;;2.58;1.80;;;23.60;99.90;;;;;;5051611;28;20670;-60
2021/06/28 00:31:28;;;;;;;2.58;1.52;;;23.60;99.90;;;;;;5051651;28;20221;-60
2021/06/28 00:33:57;;;;;;;2.08;1.40;;;23.70;99.90;;;;;;5051839;28;20213;-60
2021/06/28 00:36:24;;;;;;;1.98;1.17;;;23.60;99.90;;;;;;5051589;28;20226;-60
2021/06/28 00:38:50;;;;;;;1.88;1.30;;;23.60;99.90;;;;;;5051534;28;20725;-60
2021/06/28 00:41:17;;;;;;;3.38;1.40;;;23.60;99.90;;;;;;5051341;28;20481;-60
2021/06/28 00:43:44;;;;;;;1.63;1.30;;;23.60;99.90;;;;;;5051249;28;20233;-60
2021/06/28 00:46:10;;;;;;;2.33;1.50;;;23.70;99.90;;;;;;5051663;28;20225;-60
2021/06/28 00:48:37;;;;;;;1.70;1.50;;;23.70;99.90;;;;;;5051220;28;20210;-60
2021/06/28 00:51:05;;;;;;;1.83;1.55;;;23.60;99.90;;;;;;5051420;28;20228;-60
2021/06/28 00:53:33;;;;;;;1.30;1.20;;;23.60;99.90;;;;;;5051369;28;20213;-60
2021/06/28 00:56:09;;;;;;;3.42;1.60;;;23.60;99.90;;;;;;5051238;28;20870;-60
2021/06/28 00:58:37;;;;;;;1.60;1.50;;;23.60;99.90;;;;;;5051078;28;20297;-60
2021/06/28 01:01:04;;;;;;;1.95;1.60;;;23.60;99.90;;;;;;5051160;28;20212;-60
2021/06/28 01:03:31;;;;;;;1.60;1.50;;;23.60;99.90;;;;;;5050766;28;20228;-60
2021/06/28 01:05:59;;;;;;;2.72;1.80;;;23.60;99.90;;;;;;5050746;28;20260;-60
2021/06/28 01:08:28;;;;;;;1.40;1.25;;;23.50;99.90;;;;;;5049887;28;20216;-60
2021/06/28 01:10:55;;;;;;;2.70;1.33;;;23.40;99.90;;;;;;5050995;28;20217;-60
2021/06/28 01:13:21;;;;;;;2.20;1.90;;;23.30;99.90;;;;;;5051073;28;20585;-60
2021/06/28 01:15:49;;;;;;;1.65;1.55;;;23.20;99.90;;;;;;5050654;28;20597;-61
2021/06/28 01:18:16;;;;;;;2.80;1.48;;;23.20;99.90;;;;;;5050757;28;20209;-61
2021/06/28 01:20:44;;;;;;;1.85;1.30;;;23.20;99.90;;;;;;5050836;28;20206;-61
2021/06/28 01:23:23;;;;;;;1.77;1.50;;;23.20;99.90;;;;;;5050896;28;20209;-61
2021/06/28 01:25:52;;;;;;;3.05;1.50;;;23.20;99.90;;;;;;5050796;28;20225;-61
2021/06/28 01:28:19;;;;;;;2.85;1.63;;;23.20;99.90;;;;;;5050548;28;20206;-60
2021/06/28 01:30:46;;;;;;;2.58;1.85;;;23.20;99.90;;;;;;5050725;28;20220;-64
2021/06/28 01:33:13;;;;;;;1.40;1.30;;;23.10;99.90;;;;;;5050697;28;20205;-61
2021/06/28 01:35:40;;;;;;;3.15;1.50;;;23.00;99.90;;;;;;5050704;28;20577;-61
2021/06/28 01:38:08;;;;;;;2.30;1.70;;;23.00;99.90;;;;;;5050675;28;20251;-61
2021/06/28 01:40:37;;;;;;;1.92;1.38;;;22.90;99.90;;;;;;5050674;28;20206;-61
2021/06/28 01:43:04;;;;;;;3.35;1.70;;;22.90;99.90;;;;;;5050635;28;20210;-61
2021/06/28 01:45:31;;;;;;;1.67;1.55;;;22.90;99.90;;;;;;5050465;28;20236;-60
2021/06/28 01:47:59;;;;;;;2.72;1.50;;;23.00;99.90;;;;;;5050391;28;20218;-61
2021/06/28 01:50:27;;;;;;;3.53;1.70;;;22.90;99.90;;;;;;5050561;28;20216;-61
2021/06/28 01:52:54;;;;;;;1.98;1.35;;;22.90;99.90;;;;;;5050740;28;20205;-60
2021/06/28 01:55:22;;;;;;;2.30;1.77;;;22.90;99.90;;;;;;5050222;28;20225;-60
2021/06/28 01:57:52;;;;;;;3.30;1.60;;;22.90;99.90;;;;;;5050304;28;20209;-61
2021/06/28 02:00:26;;;;;;;1.70;1.50;;;22.90;99.90;;;;;;5050637;28;20248;-61
2021/06/28 02:03:03;;;;;;;2.65;1.60;;;22.80;99.90;;;;;;5050946;28;20575;-61
2021/06/28 02:05:32;;;;;;;3.03;1.50;;;22.80;99.90;;;;;;5050931;28;20229;-61
2021/06/28 02:07:59;;;;;;;6.63;1.48;;;22.80;99.90;;;;;;5050389;28;20212;-61
2021/06/28 02:10:26;;;;;;;2.17;1.40;;;22.80;99.90;;;;;;5050475;28;20210;-61
2021/06/28 02:12:54;;;;;;;1.70;1.60;;;22.80;99.90;;;;;;5050468;28;20589;-61
2021/06/28 02:15:23;;;;;;;2.72;1.50;;;22.80;99.90;;;;;;5050463;28;20247;-61
2021/06/28 02:17:50;;;;;;;2.42;1.52;;;22.80;99.90;;;;;;5050539;28;20256;-61
2021/06/28 02:20:18;;;;;;;2.95;1.92;;;22.70;99.90;;;;;;5054164;28;20213;-61
2021/06/28 02:22:44;;;;;;;3.10;1.48;;;22.70;99.90;;;;;;5053846;28;20208;-61
2021/06/28 02:25:12;;;;;;;1.60;1.50;;;22.60;99.90;;;;;;5053565;28;20230;-61
2021/06/28 02:27:39;;;;;;;1.60;1.50;;;22.50;99.90;;;;;;5053737;28;20216;-61
2021/06/28 02:30:11;;;;;;;3.40;1.90;;;22.50;99.90;;;;;;5053935;28;20209;-61
2021/06/28 02:32:38;;;;;;;1.98;1.83;;;22.50;99.90;;;;;;5053624;28;20216;-61
2021/06/28 02:35:08;;;;;;;2.10;1.90;;;22.50;99.90;;;;;;5053806;28;20250;-61
2021/06/28 02:37:34;;;;;;;3.58;1.60;;;22.50;99.90;;;;;;5053513;28;20213;-61
2021/06/28 02:40:01;;;;;;;2.70;1.80;;;22.50;99.90;;;;;;5053422;28;20206;-61
2021/06/28 02:42:28;;;;;;;4.10;1.90;;;22.40;99.90;;;;;;5053633;28;20244;-61
2021/06/28 02:44:55;;;;;;;2.00;1.67;;;22.40;99.90;;;;;;5053470;28;20233;-61
2021/06/28 02:47:23;;;;;;;4.22;1.90;;;22.40;99.90;;;;;;5053859;28;20398;-61
2021/06/28 02:49:49;;;;;;;1.70;1.60;;;22.40;99.90;;;;;;5053495;28;20212;-61
2021/06/28 02:52:16;;;;;;;2.63;2.00;;;22.40;99.90;;;;;;5053253;28;20563;-60
2021/06/28 02:54:43;;;;;;;2.72;2.33;;;22.40;99.90;;;;;;5052927;28;20218;-60
2021/06/28 02:57:10;;;;;;;3.00;2.70;;;22.40;99.90;;;;;;5053556;28;20202;-61
2021/06/28 02:59:36;;;;;;;6.45;3.60;;;22.50;99.90;;;;;;5052976;28;20634;-61
2021/06/28 03:02:04;;;;;;;4.43;2.97;;;22.50;99.90;;;;;;5053214;28;20624;-60
2021/06/28 03:04:32;;;;;;;2.33;2.13;;;22.50;99.90;;;;;;5052827;28;20226;-60
2021/06/28 03:06:59;;;;;;;4.75;2.65;;;22.60;99.90;;;;;;5053037;28;20206;-61
2021/06/28 03:09:26;;;;;;;3.88;2.50;;;22.60;99.90;;;;;;5053111;28;20216;-61
2021/06/28 03:11:53;;;;;;;3.33;2.20;;;22.60;99.90;;;;;;5053250;28;20205;-61
2021/06/28 03:14:20;;;;;;;5.00;3.85;;;22.60;99.90;;;;;;5053025;28;20232;-61
2021/06/28 03:16:46;;;;;;;3.38;2.50;;;22.50;99.90;;;;;;5052932;28;20216;-61
2021/06/28 03:19:13;;;;;;;2.90;2.38;;;22.50;99.90;;;;;;5053041;28;20201;-61
2021/06/28 03:21:41;;;;;;;2.88;2.33;;;22.50;99.90;;;;;;5052893;28;20235;-61
2021/06/28 03:24:08;;;;;;;3.80;3.22;;;22.40;99.90;;;;;;5052797;28;20719;-60
2021/06/28 03:26:35;;;;;;;2.97;2.53;;;22.10;99.90;;;;;;5053324;28;20205;-61
2021/06/28 03:29:01;;;;;;;2.42;2.22;;;22.40;99.90;;;;;;5053110;28;20228;-61
2021/06/28 03:31:32;;;;;;;3.55;2.88;;;22.40;99.90;;;;;;5052217;28;20209;-61
2021/06/28 03:33:58;;;;;;;2.80;2.05;;;22.40;99.90;;;;;;5052922;28;20217;-61
2021/06/28 03:36:25;;;;;;;6.57;4.68;;;22.40;99.90;;;;;;5052966;28;20209;-61
2021/06/28 03:38:53;;;;;;;5.03;2.45;;;22.30;99.90;;;;;;5052817;28;20622;-60
2021/06/28 03:41:20;;;;;;;2.83;2.20;;;22.30;99.90;;;;;;5052600;28;20217;-61
2021/06/28 03:43:47;;;;;;;4.60;2.10;;;22.30;99.90;;;;;;5052606;28;20210;-60
2021/06/28 03:46:14;;;;;;;4.55;3.67;;;22.30;99.90;;;;;;5052450;28;20229;-61
2021/06/28 03:48:41;;;;;;;5.65;3.75;;;22.30;99.90;;;;;;5052136;28;20205;-61
2021/06/28 03:51:08;;;;;;;2.65;2.40;;;22.30;99.90;;;;;;5052491;28;20205;-61
2021/06/28 03:53:34;;;;;;;7.80;6.15;;;22.30;99.90;;;;;;5052429;28;20205;-61
2021/06/28 03:56:07;;;;;;;3.33;2.45;;;22.20;99.90;;;;;;5052124;28;20229;-61
2021/06/28 03:58:34;;;;;;;5.93;2.53;;;22.20;99.90;;;;;;5051978;28;20279;-61
2021/06/28 04:01:01;;;;;;;3.90;2.83;;;22.10;99.90;;;;;;5052072;28;20210;-61
2021/06/28 04:03:29;;;;;;;7.35;2.75;;;22.10;99.90;;;;;;5051922;28;20206;-61
2021/06/28 04:05:57;;;;;;;5.20;2.28;;;22.00;99.90;;;;;;5051700;28;20294;-61
2021/06/28 04:08:24;;;;;;;2.67;2.10;;;21.80;99.90;;;;;;5051899;28;20283;-60
2021/06/28 04:10:52;;;;;;;3.78;2.53;;;21.70;99.90;;;;;;5051834;28;20213;-60
2021/06/28 04:13:20;;;;;;;3.33;2.58;;;21.70;99.90;;;;;;5051890;28;20209;-61
2021/06/28 04:15:47;;;;;;;3.97;2.53;;;21.70;99.90;;;;;;5051424;28;20225;-61
2021/06/28 04:18:14;;;;;;;4.47;2.50;;;21.70;99.90;;;;;;5052034;28;20206;-61
2021/06/28 04:20:41;;;;;;;2.97;2.60;;;21.70;99.90;;;;;;5051579;28;20209;-61
2021/06/28 04:23:08;;;;;;;3.30;2.65;;;21.70;99.90;;;;;;5051678;28;20212;-61
2021/06/28 04:25:35;;;;;;;2.83;2.53;;;21.80;99.90;;;;;;5051471;28;20242;-61
2021/06/28 04:28:02;;;;;;;5.60;2.30;;;21.90;99.90;;;;;;5051481;28;20202;-61
2021/06/28 04:30:30;;;;;;;4.65;2.67;;;22.00;99.90;;;;;;5051723;28;20209;-61
2021/06/28 04:32:57;;;;;;;3.22;2.58;;;22.10;99.90;;;;;;5051948;28;20212;-61
2021/06/28 04:35:27;;;;;;;4.80;2.58;;;22.20;99.90;;;;;;5051258;28;20229;-60
2021/06/28 04:37:55;;;;;;;3.95;2.38;;;22.20;99.90;;;;;;5051243;28;20307;-61
2021/06/28 04:40:24;;;;;;;2.58;2.15;;;22.30;99.90;;;;;;5051193;28;20283;-61
2021/06/28 04:42:51;;;;;;;3.08;2.13;;;22.30;99.90;;;;;;5050895;28;20670;-61
2021/06/28 04:45:19;;;;;;;3.40;2.38;;;22.30;99.90;;;;;;5050868;28;20790;-61
2021/06/28 04:47:48;;;;;;;3.72;2.58;;;22.40;99.90;;;;;;5051168;28;20208;-61
2021/06/28 04:50:16;;;;;;;2.47;2.28;;;22.50;99.90;;;;;;5050980;28;20665;-61
2021/06/28 04:52:43;;;;;;;2.10;1.90;;;22.60;99.90;;;;;;5051007;28;20214;-61
2021/06/28 04:55:13;;;;;;;2.20;2.00;;;22.80;99.90;;;;;;5050881;28;20236;-61
2021/06/28 04:57:40;;;;;;;4.18;2.40;;;22.90;99.90;;;;;;5050785;28;20212;-60
2021/06/28 05:00:09;;;;;;;3.67;2.10;;;23.10;99.90;;;;;;5050823;28;20609;-61
2021/06/28 05:02:37;;;;;;;2.72;1.90;;;23.10;99.90;;;;;;5050980;28;20313;-61
2021/06/28 05:05:06;;;;;;;2.50;2.08;;;23.10;99.90;;;;;;5050939;28;20225;-61
2021/06/28 05:07:32;;;;;;;2.90;2.00;;;23.00;99.90;;;;;;5050810;28;20212;-60
2021/06/28 05:10:00;;;;;;;3.47;2.20;;;23.10;99.90;;;;;;5050746;28;20212;-61
2021/06/28 05:12:26;;;;;;;4.68;3.10;;;23.30;99.90;;;;;;5050892;28;20212;-61
2021/06/28 05:14:53;;;;;;;4.22;2.33;;;23.50;99.90;;;;;;5050764;28;20222;-61
2021/06/28 05:17:20;;;;;;;4.13;2.42;;;23.60;99.90;;;;;;5050499;28;20205;-60
2021/06/28 05:19:46;;;;;;;4.28;2.63;;;23.70;99.90;;;;;;5050610;28;20590;-61
2021/06/28 05:22:14;;;;;;;3.83;2.38;;;23.80;99.90;;;;;;5050759;28;20209;-61
2021/06/28 05:24:41;;;;;;;4.05;2.40;;;23.80;99.90;;;;;;5050747;28;20228;-61
2021/06/28 05:27:08;;;;;;;3.30;2.10;;;23.70;99.90;;;;;;5050902;28;20209;-61
2021/06/28 05:29:35;;;;;;;2.80;2.00;;;23.90;99.90;;;;;;5050631;28;20212;-61
2021/06/28 05:32:03;;;;;;;3.00;2.17;;;24.00;99.90;;;;;;5051006;28;20209;-61
2021/06/28 05:34:29;;;;;;;2.55;1.95;;;24.40;99.90;;;;;;5050659;28;20232;-61
2021/06/28 05:36:56;;;;;;;4.57;2.25;;;24.60;99.90;;;;;;5050592;28;20206;-61
2021/06/28 05:39:24;;;;;;;6.15;2.10;;;24.80;99.90;;;;;;5050525;28;20304;-61
2021/06/28 05:41:51;;;;;;;2.40;2.20;;;24.80;99.90;;;;;;5050767;28;20355;-62
2021/06/28 05:44:17;;;;;;;2.38;2.00;;;24.80;99.90;;;;;;5050584;28;20236;-61
2021/06/28 05:46:44;;;;;;;4.28;2.05;;;24.90;99.90;;;;;;5050638;28;20225;-61
2021/06/28 05:49:11;;;;;;;3.63;1.88;;;25.10;99.90;;;;;;5050694;28;20206;-62
2021/06/28 05:51:37;;;;;;;3.88;1.90;;;25.30;99.90;;;;;;5050840;28;20634;-61
2021/06/28 05:54:05;;;;;;;3.15;2.08;;;25.50;99.90;;;;;;5052139;28;20205;-61
2021/06/28 05:56:33;;;;;;;2.17;1.80;;;25.50;99.90;;;;;;5054352;28;20678;-61
2021/06/28 05:58:59;;;;;;;3.13;1.90;;;25.70;99.90;;;;;;5054098;28;20210;-60
2021/06/28 06:01:26;;;;;;;6.53;2.10;;;27.00;99.90;;;;;;5054478;28;20209;-61
2021/06/28 06:03:53;;;;;;;2.13;1.92;;;29.10;99.90;;;;;;5054190;28;20586;-61
2021/06/28 06:06:19;;;;;;;2.63;2.00;;;31.30;98.00;;;;;;5053894;28;20240;-61
2021/06/28 06:08:47;;;;;;;2.38;1.73;;;33.20;93.10;;;;;;5054206;28;20232;-62
2021/06/28 06:11:14;;;;;;;1.80;1.50;;;33.80;91.30;;;;;;5054216;28;20242;-61
2021/06/28 06:13:43;;;;;;;2.00;1.80;;;34.60;87.70;;;;;;5054150;28;20206;-62
2021/06/28 06:16:09;;;;;;;1.92;1.60;;;35.70;80.80;;;;;;5053589;28;20231;-60
2021/06/28 06:18:36;;;;;;;3.53;1.42;;;36.90;74.20;;;;;;5054313;28;20212;-61
2021/06/28 06:21:03;;;;;;;3.05;1.52;;;37.70;68.90;;;;;;5053986;28;20205;-61
2021/06/28 06:23:30;;;;;;;4.43;1.80;;;37.40;67.40;;;;;;5053727;28;20648;-61
2021/06/28 06:25:57;;;;;;;3.80;1.60;;;36.60;68.20;;;;;;5053654;28;20630;-61
2021/06/28 06:28:23;;;;;;;1.95;1.65;;;36.30;69.00;;;;;;5053583;28;20560;-61
2021/06/28 06:30:51;;;;;;;1.70;1.60;;;36.90;67.00;;;;;;5053801;28;20210;-61
2021/06/28 06:33:21;;;;;;;2.60;1.77;;;37.60;64.50;;;;;;5053588;28;20210;-60
2021/06/28 06:35:48;;;;;;;2.33;1.60;;;38.40;61.80;;;;;;5053805;28;20316;-62
2021/06/28 06:38:14;;;;;;;2.70;1.70;;;39.20;59.10;;;;;;5053488;28;20213;-62
2021/06/28 06:40:41;;;;;;;5.45;1.90;;;40.00;57.40;;;;;;5053415;28;20210;-61
2021/06/28 06:43:08;;;;;;;2.78;1.52;;;40.50;55.60;;;;;;5053462;28;20240;-61
2021/06/28 06:45:35;;;;;;;3.50;1.80;;;40.70;54.00;;;;;;5053070;28;20225;-61
2021/06/28 06:48:03;;;;;;;3.20;1.63;;;40.80;53.50;;;;;;5053367;28;20212;-61
2021/06/28 06:50:30;;;;;;;1.60;1.35;;;41.10;52.90;;;;;;5053675;28;20216;-62
2021/06/28 06:52:57;;;;;;;1.48;1.38;;;41.80;51.40;;;;;;5053290;28;20202;-62
2021/06/28 06:55:25;;;;;;;2.85;1.80;;;42.40;50.20;;;;;;5053333;28;20623;-61
2021/06/28 06:57:52;;;;;;;5.05;1.75;;;43.00;49.20;;;;;;5053352;28;20340;-60
2021/06/28 07:00:21;;;;;;;7.25;3.60;;;43.60;47.90;;;;;;5053296;28;20212;-61
2021/06/28 07:02:49;;;;;;;2.95;1.73;;;44.30;46.70;;;;;;5053168;28;20220;-61
2021/06/28 07:05:18;;;;;;;2.47;1.50;;;44.90;45.10;;;;;;5051685;28;20236;-61
2021/06/28 07:07:45;;;;;;;1.83;1.58;;;45.10;44.60;;;;;;5053391;28;20209;-61
2021/06/28 07:10:14;;;;;;;2.97;1.50;;;45.20;43.80;;;;;;5053752;28;20692;-64
2021/06/28 07:12:42;;;;;;;3.40;1.63;;;44.90;43.20;;;;;;5053297;28;20220;-63
2021/06/28 07:15:10;;;;;;;2.08;1.45;;;44.00;44.30;;;;;;5053021;28;20236;-63
2021/06/28 07:17:37;;;;;;;1.92;1.60;;;43.30;45.10;;;;;;5053163;28;20296;-63
2021/06/28 07:20:06;;;;;;;1.80;1.70;;;42.70;45.50;;;;;;5053363;28;20208;-64
2021/06/28 07:22:34;;;;;;;2.20;1.60;;;41.90;46.70;;;;;;5053517;28;20212;-64
2021/06/28 07:25:00;;;;;;;1.30;1.20;;;42.40;46.20;;;;;;5053181;28;20233;-64
2021/06/28 07:27:27;;;;;;;1.83;1.30;;;43.00;45.00;;;;;;5053008;28;20256;-64
2021/06/28 07:29:54;;;;;;;2.78;1.23;;;43.20;45.00;;;;;;5053083;28;20212;-64
2021/06/28 07:32:21;;;;;;;1.48;1.38;;;43.40;43.70;;;;;;5053093;28;20616;-64
2021/06/28 07:34:47;;;;;;;2.75;1.65;;;43.40;43.30;;;;;;5052878;28;20229;-64
2021/06/28 07:37:14;;;;;;;1.45;1.20;;;43.60;43.30;;;;;;5052752;28;20204;-63
2021/06/28 07:39:42;;;;;;;1.33;1.00;;;42.60;44.10;;;;;;5052764;28;20212;-61
2021/06/28 07:42:09;;;;;;;1.42;1.15;;;42.10;44.80;;;;;;5052618;28;20213;-64
2021/06/28 07:44:36;;;;;;;2.03;1.30;;;42.60;44.10;;;;;;5052045;28;20616;-61
2021/06/28 07:47:03;;;;;;;1.70;1.10;;;43.30;43.10;;;;;;5052554;28;20229;-61
2021/06/28 07:49:29;;;;;;;1.10;1.00;;;44.40;42.20;;;;;;5051991;28;20661;-61
2021/06/28 07:51:56;;;;;;;1.48;1.17;;;45.40;40.90;;;;;;5052205;28;20216;-61
2021/06/28 07:54:24;;;;;;;1.25;1.15;;;46.20;39.40;;;;;;5051864;28;20225;-62
2021/06/28 07:56:52;;;;;;;2.47;1.40;;;46.30;39.30;;;;;;5052278;28;20279;-61
2021/06/28 07:59:20;;;;;;;2.55;1.30;;;46.00;39.40;;;;;;5051953;28;20201;-61
2021/06/28 08:01:47;;;;;;;2.38;1.10;;;46.00;39.30;;;;;;5052098;28;20219;-61
2021/06/28 08:04:14;;;;;;;2.65;1.10;;;46.60;38.00;;;;;;5051657;28;20254;-61
2021/06/28 08:06:42;;;;;;;2.13;1.20;;;47.30;37.20;;;;;;5052550;28;20228;-61
2021/06/28 08:09:09;;;;;;;1.23;1.10;;;47.40;37.00;;;;;;5051659;28;20299;-61
2021/06/28 08:11:36;;;;;;;2.15;1.30;;;47.30;37.30;;;;;;5051978;28;20204;-61
2021/06/28 08:14:05;;;;;;;1.55;1.10;;;46.90;37.40;;;;;;5051594;28;20208;-61
2021/06/28 08:16:32;;;;;;;4.38;1.30;;;46.80;37.40;;;;;;5051398;28;20223;-61
2021/06/28 08:18:59;;;;;;;2.53;1.25;;;47.30;36.70;;;;;;5051612;28;20215;-61
2021/06/28 08:21:25;;;;;;;2.72;1.00;;;47.40;36.90;;;;;;5051630;28;20208;-61
2021/06/28 08:23:52;;;;;;;3.13;1.30;;;47.20;37.00;;;;;;5051189;28;20205;-62
2021/06/28 08:26:19;;;;;;;1.50;1.15;;;47.10;37.20;;;;;;5051677;28;20232;-61
2021/06/28 08:28:46;;;;;;;1.33;1.23;;;47.10;37.00;;;;;;5051403;28;20201;-61
2021/06/28 08:31:14;;;;;;;1.38;1.20;;;46.70;37.70;;;;;;5051171;28;20665;-61
2021/06/28 08:33:43;;;;;;;1.40;1.20;;;45.50;38.90;;;;;;5051163;28;20204;-61
2021/06/28 08:36:10;;;;;;;2.22;1.10;;;44.00;40.60;;;;;;5051382;28;20615;-61
2021/06/28 08:38:37;;;;;;;4.57;1.40;;;43.10;41.70;;;;;;5051496;28;20208;-61
2021/06/28 08:41:04;;;;;;;1.80;1.60;;;42.70;41.60;;;;;;5051066;28;20208;-61
2021/06/28 08:43:31;;;;;;;1.48;1.27;;;42.80;42.00;;;;;;5051149;28;20204;-61
2021/06/28 08:45:58;;;;;;;1.45;1.35;;;42.10;43.10;;;;;;5051416;28;20236;-61
2021/06/28 08:48:26;;;;;;;1.80;1.40;;;41.70;42.90;;;;;;5050968;28;20207;-61
2021/06/28 08:50:54;;;;;;;1.80;1.40;;;41.30;43.40;;;;;;5051233;28;20205;-61
2021/06/28 08:53:22;;;;;;;2.95;1.50;;;40.80;43.80;;;;;;5051532;28;20206;-61
2021/06/28 08:55:50;;;;;;;1.40;1.27;;;40.20;44.50;;;;;;5051390;28;20226;-61
2021/06/28 08:58:19;;;;;;;1.73;1.42;;;39.20;45.80;;;;;;5050695;28;20673;-61
2021/06/28 09:00:46;;;;;;;1.70;1.52;;;38.40;47.10;;;;;;5051171;28;20677;-61
2021/06/28 09:03:14;;;;;;;2.40;1.60;;;37.60;47.90;;;;;;5051080;28;20205;-61
2021/06/28 09:05:59;;;;;;;2.63;1.58;;;36.60;49.20;;;;;;5050713;28;20622;-61
2021/06/28 09:08:27;;;;;;;1.85;1.48;;;35.70;49.70;;;;;;5050920;28;20210;-61
2021/06/28 09:10:53;;;;;;;4.55;1.60;;;35.00;50.80;;;;;;5050880;28;20209;-61
2021/06/28 09:13:36;;;;;;;2.78;1.50;;;34.70;52.10;;;;;;5050682;28;20211;-60
2021/06/28 09:16:14;;;;;;;2.42;1.60;;;34.40;52.70;;;;;;5050725;28;20287;-60
2021/06/28 09:18:50;;;;;;;2.45;1.60;;;33.80;53.70;;;;;;5051019;28;20209;-60
2021/06/28 09:21:24;;;;;;;3.30;1.85;;;33.60;54.00;;;;;;5051070;28;20205;-60
2021/06/28 09:23:51;;;;;;;2.58;1.80;;;33.50;53.90;;;;;;5050420;28;20692;-60
2021/06/28 09:26:18;;;;;;;2.85;1.40;;;33.50;54.00;;;;;;5050647;28;20232;-61
2021/06/28 09:28:49;;;;;;;3.80;1.63;;;33.60;53.60;;;;;;5052284;28;20323;-60
2021/06/28 09:31:30;;;;;;;2.03;1.70;;;33.60;53.00;;;;;;5055052;28;20220;-60
2021/06/28 09:34:08;;;;;;;1.45;1.35;;;33.60;53.50;;;;;;5055134;28;20225;-60
2021/06/28 09:36:50;;;;;;;3.35;1.60;;;33.60;53.50;;;;;;5054904;28;20397;-61
2021/06/28 09:39:25;;;;;;;1.90;1.50;;;33.40;54.50;;;;;;5054491;28;20205;-61
2021/06/28 09:41:58;;;;;;;1.55;1.45;;;33.20;53.60;;;;;;5055030;28;20223;-61
2021/06/28 09:44:27;;;;;;;2.10;1.20;;;33.00;53.50;;;;;;5054642;28;20226;-61
2021/06/28 09:47:12;;;;;;;2.67;1.10;;;32.80;50.90;;;;;;5054576;28;20593;-61
2021/06/28 09:49:41;;;;;;;1.85;1.30;;;32.40;50.80;;;;;;5054581;28;20219;-60
2021/06/28 09:52:10;;;;;;;1.15;1.05;;;32.30;51.30;;;;;;5054659;28;20251;-60
2021/06/28 09:54:39;;;;;;;2.03;1.30;;;32.50;51.50;;;;;;5054550;28;20251;-60
2021/06/28 09:57:07;;;;;;;2.15;1.40;;;32.50;51.80;;;;;;5054520;28;20567;-60
2021/06/28 09:59:36;;;;;;;1.88;1.60;;;32.70;55.10;;;;;;5054388;28;20229;-60
2021/06/28 10:02:17;;;;;;;1.50;1.40;;;32.70;56.90;;;;;;5054182;28;20232;-60
2021/06/28 10:04:49;;;;;;;2.10;1.38;;;32.70;55.70;;;;;;5054516;28;20233;-60
2021/06/28 10:07:19;;;;;;;3.55;2.20;;;32.60;53.30;;;;;;5054843;28;20328;-61
2021/06/28 10:09:46;;;;;;;2.78;1.65;;;32.70;56.90;;;;;;5054192;28;20650;-61
2021/06/28 10:12:18;;;;;;;2.67;1.58;;;32.90;54.50;;;;;;5054059;28;20212;-60
2021/06/28 10:14:46;;;;;;;2.70;1.30;;;33.00;55.90;;;;;;5054017;28;20261;-61
2021/06/28 10:17:13;;;;;;;2.50;1.23;;;33.00;52.90;;;;;;5054120;28;20557;-61
2021/06/28 10:19:42;;;;;;;2.60;1.20;;;33.10;52.80;;;;;;5054067;28;20209;-61
2021/06/28 10:22:10;;;;;;;2.05;1.60;;;33.10;52.20;;;;;;5054020;28;20237;-61
2021/06/28 10:24:38;;;;;;;1.30;1.20;;;33.10;51.80;;;;;;5053708;28;20233;-60
2021/06/28 10:27:06;;;;;;;1.30;1.20;;;32.90;51.70;;;;;;5053840;28;20229;-60
2021/06/28 10:29:34;;;;;;;1.45;1.20;;;32.60;52.50;;;;;;5054021;28;20205;-60
2021/06/28 10:32:05;;;;;;;1.52;1.20;;;32.60;52.20;;;;;;5053902;28;20493;-61
2021/06/28 10:34:32;;;;;;;1.20;0.98;;;32.70;52.10;;;;;;5053692;28;20264;-60
2021/06/28 10:37:01;;;;;;;1.25;1.15;;;32.70;51.60;;;;;;5053985;28;20201;-59
2021/06/28 10:39:30;;;;;;;1.48;1.35;;;32.70;51.60;;;;;;5050859;28;20267;-59
2021/06/28 10:42:02;;;;;;;1.70;1.20;;;32.80;51.90;;;;;;5053460;28;20337;-60
2021/06/28 10:44:47;;;;;;;1.63;1.25;;;32.90;52.30;;;;;;5053138;28;20727;-60
2021/06/28 10:47:14;;;;;;;1.35;1.25;;;32.80;53.70;;;;;;5053533;28;20244;-63
2021/06/28 10:49:45;;;;;;;1.85;1.60;;;32.70;54.20;;;;;;5053255;28;20217;-60
2021/06/28 10:52:12;;;;;;;1.92;1.40;;;32.60;54.70;;;;;;5052988;28;20209;-60
2021/06/28 10:54:39;;;;;;;1.50;1.38;;;32.50;54.40;;;;;;5052877;28;20229;-60
2021/06/28 10:57:11;;;;;;;4.90;1.40;;;32.50;54.10;;;;;;5053197;28;20201;-60
2021/06/28 10:59:42;;;;;;;2.10;1.48;;;32.70;54.40;;;;;;5053360;28;20686;-63
2021/06/28 11:02:11;;;;;;;1.40;1.30;;;32.80;53.90;;;;;;5052943;28;20202;-63
2021/06/28 11:04:40;;;;;;;4.35;1.42;;;32.70;54.10;;;;;;5053158;28;20233;-60
2021/06/28 11:07:09;;;;;;;1.88;1.23;;;32.80;54.40;;;;;;5053361;28;20226;-60
2021/06/28 11:09:38;;;;;;;2.13;1.23;;;33.00;54.00;;;;;;5053351;28;20669;-60
2021/06/28 11:12:09;;;;;;;1.48;1.38;;;32.90;53.20;;;;;;5053071;28;20209;-60
2021/06/28 11:14:44;;;;;;;2.15;1.30;;;32.80;53.90;;;;;;5053253;28;20665;-60
2021/06/28 11:17:15;;;;;;;1.40;1.30;;;32.80;55.10;;;;;;5053471;28;20212;-60
2021/06/28 11:20:09;;;;;;;1.50;1.40;;;32.80;54.60;;;;;;5053397;28;20292;-61
2021/06/28 11:22:50;;;;;;;2.20;1.60;;;32.90;54.40;;;;;;5052803;28;20259;-61
2021/06/28 11:25:20;;;;;;;1.70;1.35;;;32.80;54.40;;;;;;5052790;28;20248;-60
2021/06/28 11:27:49;;;;;;;1.42;1.33;;;32.80;54.40;;;;;;5053160;28;20230;-60
2021/06/28 11:30:25;;;;;;;1.75;1.65;;;33.00;54.40;;;;;;5053067;28;20216;-61
2021/06/28 11:33:00;;;;;;;2.00;1.52;;;33.20;54.50;;;;;;5052904;28;20335;-61
2021/06/28 11:35:43;;;;;;;1.88;1.60;;;33.50;54.90;;;;;;5052835;28;20308;-61
2021/06/28 11:38:22;;;;;;;1.90;1.70;;;33.70;54.30;;;;;;5053096;28;20420;-61
2021/06/28 11:40:52;;;;;;;2.47;1.70;;;33.90;53.70;;;;;;5053131;28;20268;-60
2021/06/28 11:43:42;;;;;;;1.70;1.55;;;34.00;53.90;;;;;;5052715;28;20299;-61
2021/06/28 11:46:11;;;;;;;2.85;1.60;;;34.30;53.00;;;;;;5046759;28;20236;-61
2021/06/28 11:48:40;;;;;;;1.80;1.70;;;34.60;52.80;;;;;;5052571;28;20252;-60
2021/06/28 11:51:16;;;;;;;2.42;1.60;;;34.90;52.90;;;;;;5052088;28;20216;-61
2021/06/28 11:53:44;;;;;;;1.88;1.77;;;35.10;52.20;;;;;;5052713;28;20209;-61
2021/06/28 11:56:20;;;;;;;2.38;1.67;;;35.20;52.50;;;;;;5052325;28;20749;-61
2021/06/28 11:59:09;;;;;;;4.03;1.90;;;35.10;52.50;;;;;;5052401;28;20212;-61
2021/06/28 12:01:37;;;;;;;2.22;1.77;;;35.20;52.50;;;;;;5045254;28;20206;-61
2021/06/28 12:04:06;;;;;;;1.98;1.70;;;35.10;53.10;;;;;;5051900;28;20230;-61
2021/06/28 12:06:35;;;;;;;2.78;1.95;;;34.70;53.30;;;;;;5052235;28;20234;-61
2021/06/28 12:09:07;;;;;;;2.88;1.67;;;34.60;53.80;;;;;;5052337;28;20210;-61
2021/06/28 12:11:35;;;;;;;4.95;1.80;;;34.40;54.40;;;;;;5052595;28;20205;-60
2021/06/28 12:14:01;;;;;;;2.10;1.90;;;34.10;54.60;;;;;;5052123;28;20206;-60
2021/06/28 12:16:30;;;;;;;2.47;1.40;;;34.00;55.00;;;;;;5051930;28;20689;-60
2021/06/28 12:19:08;;;;;;;3.97;1.73;;;33.70;55.90;;;;;;5052260;28;20202;-59
2021/06/28 12:21:37;;;;;;;2.08;1.88;;;33.50;56.10;;;;;;5052144;28;20241;-60
2021/06/28 12:24:11;;;;;;;1.83;1.73;;;33.60;55.70;;;;;;5051711;28;20248;-60
2021/06/28 12:26:40;;;;;;;1.83;1.60;;;33.70;55.60;;;;;;5051797;28;20216;-60
2021/06/28 12:29:27;;;;;;;4.45;1.80;;;33.70;55.50;;;;;;5051995;28;20210;-59
2021/06/28 12:32:02;;;;;;;2.22;1.90;;;33.70;55.80;;;;;;5051719;28;20216;-59
2021/06/28 12:34:29;;;;;;;3.17;1.90;;;33.70;55.70;;;;;;5051799;28;20225;-59
2021/06/28 12:36:56;;;;;;;1.95;1.70;;;34.10;55.10;;;;;;5051673;28;20582;-60
2021/06/28 12:39:23;;;;;;;2.00;1.65;;;34.30;55.10;;;;;;5051434;28;20209;-60
2021/06/28 12:41:51;;;;;;;2.45;1.90;;;34.50;56.20;;;;;;5051843;28;20237;-60
2021/06/28 12:44:18;;;;;;;2.90;1.67;;;34.70;55.30;;;;;;5051072;28;20213;-59
2021/06/28 12:46:45;;;;;;;1.77;1.60;;;34.70;55.90;;;;;;5051514;28;20208;-60
2021/06/28 12:49:14;;;;;;;3.33;1.67;;;34.50;56.90;;;;;;5051406;28;20275;-60
2021/06/28 12:51:41;;;;;;;2.08;1.75;;;34.10;57.80;;;;;;5051695;28;20293;-60
2021/06/28 12:54:25;;;;;;;2.83;1.83;;;33.90;59.40;;;;;;5051007;28;20201;-60
2021/06/28 12:56:52;;;;;;;2.80;2.00;;;33.70;60.00;;;;;;5051269;28;20209;-61